Time;durP1;ratioP1;P1;durP2;ratioP2;P2;SDS_P1;SDS_P2;PMS_P1;PMS_P2;Temp;Humidity;BMP_temperature;BMP_pressure;BME280_temperature;BME280_humidity;BME280_pressure;Samples;Min_cycle;Max_cycle;Signal;HPM_P1;HPM_P2
2021/12/11 00:00:15;;;;;;;1999.90;999.90;;;;;;;-3.67;63.00;99976.59;4954807;28;96879;-70
2021/12/11 00:02:45;;;;;;;1999.90;999.90;;;;;;;-3.65;63.75;99977.59;4931583;28;100702;-71
2021/12/11 00:05:16;;;;;;;1999.90;999.90;;;;;;;-3.62;63.27;99994.28;4948404;28;98856;-70
2021/12/11 00:07:44;;;;;;;1999.90;999.90;;;;;;;-3.61;63.15;99990.00;4952133;28;97347;-71
2021/12/11 00:10:22;;;;;;;1999.90;999.90;;;;;;;-3.61;63.86;99990.91;4948388;28;97861;-70
2021/12/11 00:12:54;;;;;;;1999.90;999.90;;;;;;;-3.61;63.25;99995.19;4945178;28;97780;-71
2021/12/11 00:15:26;;;;;;;1999.90;999.90;;;;;;;-3.60;63.06;100000.47;4944909;28;96889;-70
2021/12/11 00:17:57;;;;;;;1999.90;999.90;;;;;;;-3.59;63.04;100001.38;4943941;28;97942;-72
2021/12/11 00:20:29;;;;;;;1999.90;999.90;;;;;;;-3.61;63.67;100003.00;4943076;28;99030;-71
2021/12/11 00:22:57;;;;;;;1999.90;999.90;;;;;;;-3.63;62.99;100004.59;4941842;28;97632;-71
2021/12/11 00:25:27;;;;;;;1999.90;999.90;;;;;;;-3.63;63.44;100002.91;4942393;28;97903;-71
2021/12/11 00:28:01;;;;;;;1999.90;999.90;;;;;;;-3.64;62.99;100010.59;4941553;28;97447;-71
2021/12/11 00:30:31;;;;;;;1999.90;999.90;;;;;;;-3.63;63.43;100013.28;4941748;28;97174;-71
2021/12/11 00:33:01;;;;;;;1999.90;999.90;;;;;;;-3.62;63.50;100025.47;4942935;28;99215;-71
2021/12/11 00:35:29;;;;;;;1999.90;999.90;;;;;;;-3.62;63.63;100019.41;4942705;28;97639;-68
2021/12/11 00:38:03;;;;;;;1999.90;999.90;;;;;;;-3.64;63.08;100024.47;4943232;28;97323;-76
2021/12/11 00:40:32;;;;;;;1999.90;999.90;;;;;;;-3.61;63.58;100022.09;4944283;28;96765;-68
2021/12/11 00:43:04;;;;;;;1999.90;999.90;;;;;;;-3.60;63.61;100026.47;4942593;28;98222;-71
2021/12/11 00:45:34;;;;;;;1999.90;999.90;;;;;;;-3.60;64.01;100031.69;4943320;28;98968;-70
2021/12/11 00:48:04;;;;;;;1999.90;999.90;;;;;;;-3.58;63.35;100040.47;4942819;28;96908;-70
2021/12/11 00:50:35;;;;;;;1999.90;999.90;;;;;;;-3.59;63.27;100046.50;4941913;28;97672;-71
2021/12/11 00:53:08;;;;;;;1999.90;999.90;;;;;;;-3.58;63.70;100052.56;4942238;28;96871;-70
2021/12/11 00:55:41;;;;;;;1999.90;999.90;;;;;;;-3.59;63.19;100048.19;4941742;28;98897;-71
2021/12/11 00:58:11;;;;;;;1999.90;999.90;;;;;;;-3.58;63.87;100055.16;4942346;28;97469;-74
2021/12/11 01:00:43;;;;;;;1999.90;999.90;;;;;;;-3.60;63.32;100064.59;4940619;28;98046;-71
2021/12/11 01:03:12;;;;;;;1999.90;999.90;;;;;;;-3.69;63.61;100070.06;4940569;28;98690;-69
2021/12/11 01:05:44;;;;;;;1999.90;999.90;;;;;;;-3.71;63.66;100076.00;4942599;28;99236;-73
2021/12/11 01:08:20;;;;;;;1999.90;999.90;;;;;;;-3.72;63.34;100077.69;4943650;28;97761;-70
2021/12/11 01:10:54;;;;;;;1999.90;999.90;;;;;;;-3.73;63.98;100082.78;4942911;28;97397;-71
2021/12/11 01:13:25;;;;;;;1999.90;999.90;;;;;;;-3.71;63.93;100086.38;4943309;28;99125;-71
2021/12/11 01:16:00;;;;;;;1999.90;999.90;;;;;;;-3.71;63.61;100092.47;4929189;28;100386;-71
2021/12/11 01:18:36;;;;;;;1999.90;999.90;;;;;;;-3.72;63.74;100094.97;4945060;28;96926;-73
2021/12/11 01:21:26;;;;;;;1999.90;999.90;;;;;;;-3.77;63.67;100098.97;4945903;28;97651;-72
2021/12/11 01:24:11;;;;;;;1999.90;999.90;;;;;;;-3.81;63.44;100105.66;4944694;28;100021;-71
2021/12/11 01:26:45;;;;;;;1999.90;999.90;;;;;;;-3.84;63.85;100114.94;4944139;28;99249;-69
2021/12/11 01:29:21;;;;;;;1999.90;999.90;;;;;;;-3.86;63.75;100115.72;4943474;28;97260;-72
2021/12/11 01:31:50;;;;;;;1999.90;999.90;;;;;;;-3.90;63.89;100121.53;4944478;28;97958;-73
2021/12/11 01:34:18;;;;;;;1999.90;999.90;;;;;;;-3.93;64.13;100131.72;4945071;28;99317;-70
2021/12/11 01:36:46;;;;;;;1999.90;999.90;;;;;;;-3.92;63.85;100123.13;4944619;28;98950;-71
2021/12/11 01:39:20;;;;;;;1999.90;999.90;;;;;;;-3.92;63.74;100130.94;4927278;28;98059;-72
2021/12/11 01:41:51;;;;;;;1999.90;999.90;;;;;;;-3.88;63.47;100129.44;4943613;28;96898;-71
2021/12/11 01:44:26;;;;;;;1999.90;999.90;;;;;;;-3.87;63.89;100139.94;4942748;28;101091;-72
2021/12/11 01:46:59;;;;;;;1999.90;999.90;;;;;;;-3.88;63.65;100140.72;4942302;28;99262;-71
2021/12/11 01:49:27;;;;;;;1999.90;999.90;;;;;;;-3.83;63.51;100146.22;4945731;28;96950;-71
2021/12/11 01:51:57;;;;;;;1999.90;999.90;;;;;;;-3.84;63.67;100157.41;4944255;28;97540;-71
2021/12/11 01:54:29;;;;;;;1999.90;999.90;;;;;;;-3.85;63.43;100150.41;4944365;28;98065;-72
2021/12/11 01:57:01;;;;;;;1999.90;999.90;;;;;;;-3.86;63.95;100156.44;4943671;28;98059;-71
2021/12/11 01:59:31;;;;;;;1999.90;999.90;;;;;;;-3.90;63.85;100159.63;4943467;28;97463;-71
2021/12/11 02:02:03;;;;;;;1999.90;999.90;;;;;;;-4.00;64.30;100170.16;4917264;28;96907;-71
2021/12/11 02:04:36;;;;;;;1999.90;999.90;;;;;;;-4.03;64.09;100169.97;4943700;28;99617;-71
2021/12/11 02:07:08;;;;;;;1999.90;999.90;;;;;;;-4.03;63.71;100170.88;4943231;28;100714;-71
2021/12/11 02:09:39;;;;;;;1999.90;999.90;;;;;;;-4.04;64.45;100179.44;4941042;28;96889;-70
2021/12/11 02:12:18;;;;;;;1999.90;999.90;;;;;;;-4.04;63.99;100173.34;4942559;28;98100;-71
2021/12/11 02:14:50;;;;;;;1999.90;999.90;;;;;;;-4.01;63.99;100178.75;4940875;28;98544;-71
2021/12/11 02:17:21;;;;;;;1999.90;999.90;;;;;;;-4.00;63.84;100190.94;4925007;28;98361;-71
2021/12/11 02:19:54;;;;;;;1999.90;999.90;;;;;;;-3.99;63.76;100193.63;4940653;28;98026;-71
2021/12/11 02:22:26;;;;;;;1999.90;999.90;;;;;;;-3.99;63.67;100183.25;4945243;28;97937;-70
2021/12/11 02:24:56;;;;;;;1999.90;999.90;;;;;;;-3.98;63.92;100184.16;4943062;28;98646;-72
2021/12/11 02:27:25;;;;;;;1999.90;999.90;;;;;;;-3.98;63.95;100198.06;4940457;28;99288;-70
2021/12/11 02:29:58;;;;;;;1999.90;999.90;;;;;;;-3.95;63.87;100192.19;4950001;28;97986;-71
2021/12/11 02:32:32;;;;;;;1999.90;999.90;;;;;;;-3.94;63.51;100192.28;4943883;28;99161;-70
2021/12/11 02:35:05;;;;;;;1999.90;999.90;;;;;;;-3.94;63.61;100196.56;4942953;28;99276;-70
2021/12/11 02:37:39;;;;;;;1999.90;999.90;;;;;;;-3.92;63.65;100201.09;4945307;28;97382;-73
2021/12/11 02:40:14;;;;;;;1999.90;999.90;;;;;;;-3.91;63.65;100195.09;4944683;28;96848;-73
2021/12/11 02:42:46;;;;;;;1999.90;999.90;;;;;;;-3.89;63.72;100206.47;4944850;28;97219;-72
2021/12/11 02:45:19;;;;;;;1999.90;999.90;;;;;;;-3.87;63.74;100203.97;4942486;28;97643;-71
2021/12/11 02:47:49;;;;;;;1999.90;999.90;;;;;;;-3.88;63.84;100208.28;4944403;28;98673;-72
2021/12/11 02:50:22;;;;;;;1999.90;999.90;;;;;;;-3.88;63.55;100210.88;4944867;28;98394;-72
2021/12/11 02:52:54;;;;;;;1999.90;999.90;;;;;;;-3.91;63.56;100213.28;4945198;28;97601;-72
2021/12/11 02:55:25;;;;;;;1999.90;999.90;;;;;;;-3.91;63.70;100218.47;4942524;28;101392;-73
2021/12/11 02:57:56;;;;;;;1999.90;999.90;;;;;;;-3.89;63.47;100235.06;4942686;28;98810;-72
2021/12/11 03:00:31;;;;;;;1999.90;999.90;;;;;;;-3.88;63.66;100239.47;4940812;28;97550;-71
2021/12/11 03:03:05;;;;;;;1999.90;999.90;;;;;;;-3.86;63.71;100244.78;4941646;28;97045;-72
2021/12/11 03:05:40;;;;;;;1999.90;999.90;;;;;;;-3.87;63.56;100242.97;4941533;28;99113;-71
2021/12/11 03:08:13;;;;;;;1999.90;999.90;;;;;;;-3.89;63.78;100253.25;4941413;28;99577;-71
2021/12/11 03:10:44;;;;;;;1999.90;999.90;;;;;;;-3.93;63.39;100256.44;4946343;28;96882;-72
2021/12/11 03:13:12;;;;;;;1999.90;999.90;;;;;;;-3.94;63.43;100252.03;4945792;28;97708;-71
2021/12/11 03:15:40;;;;;;;1999.90;999.90;;;;;;;-3.91;63.89;100260.03;4947260;28;98654;-71
2021/12/11 03:18:08;;;;;;;1999.90;999.90;;;;;;;-3.90;63.76;100261.88;4947740;28;97663;-72
2021/12/11 03:20:37;;;;;;;1999.90;999.90;;;;;;;-3.89;63.70;100268.84;4947635;28;97179;-72
2021/12/11 03:23:07;;;;;;;1999.90;999.90;;;;;;;-3.88;63.88;100270.63;4947095;28;98754;-72
2021/12/11 03:25:36;;;;;;;1999.90;999.90;;;;;;;-3.89;63.79;100274.06;4946530;28;99350;-71
2021/12/11 03:28:05;;;;;;;1999.90;999.90;;;;;;;-3.88;63.78;100278.44;4945578;28;97755;-73
2021/12/11 03:30:35;;;;;;;1999.90;999.90;;;;;;;-3.92;63.82;100288.53;4946479;28;97299;-72
2021/12/11 03:33:07;;;;;;;1999.90;999.90;;;;;;;-3.98;63.51;100286.41;4946448;28;96859;-72
2021/12/11 03:35:35;;;;;;;1999.90;999.90;;;;;;;-4.00;64.02;100293.19;4947562;28;98027;-71
2021/12/11 03:38:03;;;;;;;1999.90;999.90;;;;;;;-3.99;63.82;100305.38;4945430;28;100492;-72
2021/12/11 03:40:31;;;;;;;1999.90;999.90;;;;;;;-4.01;63.89;100294.00;4946697;28;97237;-71
2021/12/11 03:43:02;;;;;;;1999.90;999.90;;;;;;;-4.03;63.67;100300.78;4947354;28;97365;-72
2021/12/11 03:45:32;;;;;;;1999.90;999.90;;;;;;;-4.06;63.87;100302.25;4945898;28;97820;-70
2021/12/11 03:48:11;;;;;;;1999.90;999.90;;;;;;;-4.08;63.89;100314.22;4946993;28;97974;-72
2021/12/11 03:50:39;;;;;;;1999.90;999.90;;;;;;;-4.11;64.04;100312.28;4945139;28;97701;-72
2021/12/11 03:53:08;;;;;;;1999.90;999.90;;;;;;;-4.09;63.77;100321.09;4947886;28;96838;-73
2021/12/11 03:55:42;;;;;;;1999.90;999.90;;;;;;;-4.08;63.94;100320.31;4945237;28;98499;-72
2021/12/11 03:58:11;;;;;;;1999.90;999.90;;;;;;;-4.04;63.91;100331.81;4944803;28;100318;-72
2021/12/11 04:00:42;;;;;;;1999.90;999.90;;;;;;;-4.04;63.74;100335.31;4946206;28;96959;-72
2021/12/11 04:03:12;;;;;;;1999.90;999.90;;;;;;;-4.05;63.44;100340.41;4943888;28;96937;-72
2021/12/11 04:05:43;;;;;;;1999.90;999.90;;;;;;;-4.08;63.50;100342.81;4944514;28;100579;-73
2021/12/11 04:08:14;;;;;;;1999.90;999.90;;;;;;;-4.11;63.66;100345.16;4946127;28;97683;-70
2021/12/11 04:10:42;;;;;;;1999.90;999.90;;;;;;;-4.11;63.75;100355.53;4945715;28;96789;-72
2021/12/11 04:13:13;;;;;;;1999.90;999.90;;;;;;;-4.14;63.69;100356.25;4928244;28;96955;-71
2021/12/11 04:15:47;;;;;;;1999.90;999.90;;;;;;;-4.16;63.79;100356.91;4945876;28;98759;-72
2021/12/11 04:18:15;;;;;;;1999.90;999.90;;;;;;;-4.15;63.89;100362.22;4945676;28;97643;-73
2021/12/11 04:20:44;;;;;;;1999.90;999.90;;;;;;;-4.20;63.49;100363.59;4944941;28;97164;-71
2021/12/11 04:23:13;;;;;;;1999.90;999.90;;;;;;;-4.22;63.83;100374.66;4945795;28;97353;-72
2021/12/11 04:25:44;;;;;;;1999.90;999.90;;;;;;;-4.25;63.77;100382.22;4946092;28;97621;-73
2021/12/11 04:28:16;;;;;;;1999.90;999.90;;;;;;;-4.29;63.67;100382.78;4943352;28;99206;-72
2021/12/11 04:30:45;;;;;;;1999.90;999.90;;;;;;;-4.34;63.91;100390.25;4946305;28;97831;-72
2021/12/11 04:33:13;;;;;;;1999.90;999.90;;;;;;;-4.38;63.93;100396.00;4947427;28;97219;-74
2021/12/11 04:35:43;;;;;;;1999.90;999.90;;;;;;;-4.38;63.98;100390.81;4947600;28;97658;-72
2021/12/11 04:38:13;;;;;;;1999.90;999.90;;;;;;;-4.37;63.86;100397.81;4943992;28;97689;-72
2021/12/11 04:40:45;;;;;;;1999.90;999.90;;;;;;;-4.37;63.94;100394.31;4946078;28;97076;-72
2021/12/11 04:43:17;;;;;;;1999.90;999.90;;;;;;;-4.38;63.83;100393.41;4927097;28;97951;-73
2021/12/11 04:45:47;;;;;;;1999.90;999.90;;;;;;;-4.38;63.90;100396.00;4943885;28;98529;-72
2021/12/11 04:48:23;;;;;;;1999.90;999.90;;;;;;;-4.41;63.88;100408.78;4944379;28;98167;-72
2021/12/11 04:50:57;;;;;;;1999.90;999.90;;;;;;;-4.48;63.95;100406.50;4944588;28;97465;-72
2021/12/11 04:53:42;;;;;;;1999.90;999.90;;;;;;;-4.51;63.91;100411.47;4944499;28;97253;-72
2021/12/11 04:56:35;;;;;;;1999.90;999.90;;;;;;;-4.52;63.70;100417.47;4942268;28;99066;-72
2021/12/11 04:59:24;;;;;;;1999.90;999.90;;;;;;;-4.52;64.02;100419.16;4944549;28;98528;-72
2021/12/11 05:02:04;;;;;;;1999.90;999.90;;;;;;;-4.52;64.30;100425.25;4943266;28;97539;-72
2021/12/11 05:04:45;;;;;;;1999.90;999.90;;;;;;;-4.49;64.12;100425.47;4942611;28;96969;-71
2021/12/11 05:07:25;;;;;;;1999.90;999.90;;;;;;;-4.45;64.26;100435.31;4938881;28;100474;-71
2021/12/11 05:09:59;;;;;;;1999.90;999.90;;;;;;;-4.45;64.18;100437.91;4943005;28;97953;-71
2021/12/11 05:12:34;;;;;;;1999.90;999.90;;;;;;;-4.48;64.15;100445.44;4941434;28;96969;-72
2021/12/11 05:15:10;;;;;;;1999.90;999.90;;;;;;;-4.49;64.00;100451.44;4939080;28;98165;-72
2021/12/11 05:17:38;;;;;;;1999.90;999.90;;;;;;;-4.43;64.00;100462.28;4942092;28;98656;-71
2021/12/11 05:20:08;;;;;;;1999.90;999.90;;;;;;;-4.40;63.94;100459.00;4939585;28;99259;-71
2021/12/11 05:22:36;;;;;;;1999.90;999.90;;;;;;;-4.38;64.28;100466.13;4922898;28;97231;-71
2021/12/11 05:25:05;;;;;;;1999.90;999.90;;;;;;;-4.39;64.13;100469.50;4937492;28;98267;-71
2021/12/11 05:27:33;;;;;;;1999.90;999.90;;;;;;;-4.39;64.03;100474.69;4939861;28;98704;-73
2021/12/11 05:30:02;;;;;;;1999.90;999.90;;;;;;;-4.42;63.62;100481.34;4941533;28;98456;-72
2021/12/11 05:32:31;;;;;;;1999.90;999.90;;;;;;;-4.46;64.05;100482.81;4939194;28;97287;-72
2021/12/11 05:34:59;;;;;;;1999.90;999.90;;;;;;;-4.49;64.24;100481.66;4940744;28;96836;-72
2021/12/11 05:37:27;;;;;;;1999.90;999.90;;;;;;;-4.51;63.86;100484.16;4940555;28;97655;-71
2021/12/11 05:39:55;;;;;;;1999.90;999.90;;;;;;;-4.57;64.26;100486.28;4941722;28;99318;-71
2021/12/11 05:42:23;;;;;;;1999.90;999.90;;;;;;;-4.58;64.06;100491.38;4939983;28;97040;-72
2021/12/11 05:44:51;;;;;;;1999.90;999.90;;;;;;;-4.57;64.27;100493.19;4941322;28;97264;-73
2021/12/11 05:47:20;;;;;;;1999.90;999.90;;;;;;;-4.55;64.03;100505.47;4940901;28;97720;-72
2021/12/11 05:49:49;;;;;;;1999.90;999.90;;;;;;;-4.58;64.24;100510.44;4940396;28;97571;-72
2021/12/11 05:52:18;;;;;;;1999.90;999.90;;;;;;;-4.60;63.88;100524.09;4939187;28;96870;-71
2021/12/11 05:54:47;;;;;;;1999.90;999.90;;;;;;;-4.65;64.17;100520.25;4939865;28;97578;-72
2021/12/11 05:57:16;;;;;;;1999.90;999.90;;;;;;;-4.70;64.17;100535.47;4939008;28;100192;-72
2021/12/11 05:59:45;;;;;;;1999.90;999.90;;;;;;;-4.70;64.68;100538.06;4923451;28;100647;-73
2021/12/11 06:02:16;;;;;;;1999.90;999.90;;;;;;;-4.74;64.47;100541.22;4939893;28;97732;-73
2021/12/11 06:04:50;;;;;;;1999.90;999.90;;;;;;;-4.75;64.44;100547.16;4939308;28;97589;-72
2021/12/11 06:07:21;;;;;;;1999.90;999.90;;;;;;;-4.79;64.61;100552.03;4938658;28;99593;-73
2021/12/11 06:09:51;;;;;;;1999.90;999.90;;;;;;;-4.88;64.51;100559.09;4938451;28;97796;-73
2021/12/11 06:12:20;;;;;;;1999.90;999.90;;;;;;;-4.92;64.75;100568.31;4938553;28;99029;-73
2021/12/11 06:14:50;;;;;;;1999.90;999.90;;;;;;;-4.94;64.95;100572.47;4939227;28;96745;-74
2021/12/11 06:17:20;;;;;;;1999.90;999.90;;;;;;;-5.02;65.37;100577.06;4939436;28;98798;-73
2021/12/11 06:19:52;;;;;;;1999.90;999.90;;;;;;;-5.04;64.82;100586.41;4938224;28;97934;-74
2021/12/11 06:22:24;;;;;;;1999.90;999.90;;;;;;;-5.08;65.16;100588.63;4938586;28;97692;-74
2021/12/11 06:24:54;;;;;;;1999.90;999.90;;;;;;;-5.10;64.90;100591.09;4940869;28;96993;-72
2021/12/11 06:27:22;;;;;;;1999.90;999.90;;;;;;;-5.15;65.00;100589.84;4939849;28;98296;-72
2021/12/11 06:29:50;;;;;;;1999.90;999.90;;;;;;;-5.16;65.32;100597.50;4941849;28;100531;-71
2021/12/11 06:32:18;;;;;;;1999.90;999.90;;;;;;;-5.20;65.17;100604.13;4942804;28;97642;-73
2021/12/11 06:34:46;;;;;;;1999.90;999.90;;;;;;;-5.23;65.00;100608.16;4942887;28;96806;-72
2021/12/11 06:37:16;;;;;;;1999.90;999.90;;;;;;;-5.27;64.67;100613.88;4943174;28;97128;-71
2021/12/11 06:39:45;;;;;;;1999.90;999.90;;;;;;;-5.30;64.72;100617.13;4940542;28;99508;-73
2021/12/11 06:42:17;;;;;;;1999.90;999.90;;;;;;;-5.32;65.28;100625.59;4939204;28;97606;-71
2021/12/11 06:44:45;;;;;;;1999.90;999.90;;;;;;;-5.36;64.76;100628.69;4940869;28;97314;-69
2021/12/11 06:47:14;;;;;;;1999.90;999.90;;;;;;;-5.39;64.53;100644.00;4942542;28;99084;-72
2021/12/11 06:49:44;;;;;;;1999.90;999.90;;;;;;;-5.46;64.69;100646.84;4940798;28;99661;-70
2021/12/11 06:52:15;;;;;;;1999.90;999.90;;;;;;;-5.48;64.71;100649.34;4942668;28;98311;-68
2021/12/11 06:54:45;;;;;;;1999.90;999.90;;;;;;;-5.47;64.84;100642.47;4942445;28;97422;-70
2021/12/11 06:57:13;;;;;;;1999.90;999.90;;;;;;;-5.46;64.56;100650.38;4942120;28;101048;-70
2021/12/11 06:59:41;;;;;;;1999.90;999.90;;;;;;;-5.45;64.58;100654.78;4942479;28;98761;-70
2021/12/11 07:02:09;;;;;;;1999.90;999.90;;;;;;;-5.44;64.58;100658.25;4940779;28;97204;-72
2021/12/11 07:04:37;;;;;;;1999.90;999.90;;;;;;;-5.41;64.71;100671.50;4942877;28;97747;-72
2021/12/11 07:07:05;;;;;;;1999.90;999.90;;;;;;;-5.41;65.08;100669.78;4916209;28;99395;-72
2021/12/11 07:09:34;;;;;;;1999.90;999.90;;;;;;;-5.41;64.49;100677.56;4941268;28;99546;-72
2021/12/11 07:12:04;;;;;;;1999.90;999.90;;;;;;;-5.43;64.60;100680.84;4943171;28;97018;-73
2021/12/11 07:14:32;;;;;;;1999.90;999.90;;;;;;;-5.42;64.71;100693.00;4942216;28;97282;-72
2021/12/11 07:17:01;;;;;;;1999.90;999.90;;;;;;;-5.43;64.71;100678.25;4944409;28;97958;-72
2021/12/11 07:19:29;;;;;;;1999.90;999.90;;;;;;;-5.43;64.74;100697.31;4949021;28;100309;-71
2021/12/11 07:21:57;;;;;;;1999.90;999.90;;;;;;;-5.39;64.65;100698.47;4940890;28;97152;-71
2021/12/11 07:24:30;;;;;;;1999.90;999.90;;;;;;;-5.38;64.72;100695.06;4958067;28;100197;-70
2021/12/11 07:26:58;;;;;;;1999.90;999.90;;;;;;;-5.39;64.42;100709.72;4925654;28;100341;-70
2021/12/11 07:29:30;;;;;;;1999.90;999.90;;;;;;;-5.39;64.58;100714.91;4926666;28;98843;-71
2021/12/11 07:31:59;;;;;;;1999.90;999.90;;;;;;;-5.37;64.72;100712.44;4944548;28;98238;-72
2021/12/11 07:34:27;;;;;;;1999.90;999.90;;;;;;;-5.35;64.57;100719.56;4943715;28;96826;-70
2021/12/11 07:36:55;;;;;;;1999.90;999.90;;;;;;;-5.32;64.59;100722.41;4943771;28;100518;-73
2021/12/11 07:39:24;;;;;;;1999.90;999.90;;;;;;;-5.30;64.27;100726.03;4944251;28;99278;-73
2021/12/11 07:41:53;;;;;;;1999.90;999.90;;;;;;;-5.26;64.49;100729.78;4943625;28;97771;-71
2021/12/11 07:44:21;;;;;;;1999.90;999.90;;;;;;;-5.24;64.47;100733.41;4952878;28;97357;-70
2021/12/11 07:46:51;;;;;;;1999.90;999.90;;;;;;;-5.19;64.14;100750.28;4941910;28;99413;-69
2021/12/11 07:49:19;;;;;;;1999.90;999.90;;;;;;;-5.16;63.92;100750.53;4944538;28;97561;-70
2021/12/11 07:51:48;;;;;;;1999.90;999.90;;;;;;;-5.15;64.22;100758.41;4944809;28;98011;-70
2021/12/11 07:54:19;;;;;;;1999.90;999.90;;;;;;;-5.12;64.45;100762.97;4946554;28;97427;-73
2021/12/11 07:56:47;;;;;;;1999.90;999.90;;;;;;;-5.11;63.96;100770.88;4945339;28;98789;-72
2021/12/11 07:59:15;;;;;;;1999.90;999.90;;;;;;;-5.11;63.98;100773.47;4946029;28;97596;-72
2021/12/11 08:01:46;;;;;;;1999.90;999.90;;;;;;;-5.10;64.15;100782.16;4945773;28;98222;-72
2021/12/11 08:04:15;;;;;;;1999.90;999.90;;;;;;;-5.09;64.33;100779.69;4962723;28;97184;-71
2021/12/11 08:06:44;;;;;;;1999.90;999.90;;;;;;;-5.08;64.06;100780.56;4947987;28;99260;-71
2021/12/11 08:09:15;;;;;;;1999.90;999.90;;;;;;;-5.06;64.00;100794.56;4946450;28;98366;-71
2021/12/11 08:11:45;;;;;;;1999.90;999.90;;;;;;;-5.04;64.21;100791.34;4948656;28;97208;-71
2021/12/11 08:14:13;;;;;;;1999.90;999.90;;;;;;;-5.03;64.45;100794.84;4930999;28;97210;-71
2021/12/11 08:16:46;;;;;;;1999.90;999.90;;;;;;;-4.98;64.21;100801.31;4947403;28;99135;-72
2021/12/11 08:19:17;;;;;;;1999.90;999.90;;;;;;;-4.95;64.23;100799.88;4947209;28;99094;-72
2021/12/11 08:21:46;;;;;;;1999.90;999.90;;;;;;;-4.90;64.10;100802.88;4948429;28;97221;-71
2021/12/11 08:24:15;;;;;;;1999.90;999.90;;;;;;;-4.85;64.25;100805.81;4946036;28;98050;-70
2021/12/11 08:26:43;;;;;;;1999.90;999.90;;;;;;;-4.84;64.40;100808.53;4946298;28;102264;-71
2021/12/11 08:29:14;;;;;;;1999.90;999.90;;;;;;;-4.82;64.13;100809.56;4946145;28;98845;-71
2021/12/11 08:31:43;;;;;;;1999.90;999.90;;;;;;;-4.79;64.20;100817.63;4937567;28;96934;-71
2021/12/11 08:34:11;;;;;;;1999.90;999.90;;;;;;;-4.75;64.07;100811.88;4943908;28;97388;-72
2021/12/11 08:36:41;;;;;;;1999.90;999.90;;;;;;;-4.75;64.25;100805.81;4945703;28;98804;-71
2021/12/11 08:39:13;;;;;;;1999.90;999.90;;;;;;;-4.74;64.09;100816.31;4942775;28;97714;-75
2021/12/11 08:41:42;;;;;;;1999.90;999.90;;;;;;;-4.71;64.03;100816.56;4940370;28;97353;-72
2021/12/11 08:44:13;;;;;;;1999.90;999.90;;;;;;;-4.70;64.18;100820.97;4924590;28;97197;-71
2021/12/11 08:46:43;;;;;;;1999.90;999.90;;;;;;;-4.68;64.36;100816.78;4942933;28;97943;-70
2021/12/11 08:49:14;;;;;;;1999.90;999.90;;;;;;;-4.73;64.80;100809.41;4924757;28;100033;-72
2021/12/11 08:51:48;;;;;;;1999.90;999.90;;;;;;;-4.71;64.23;100821.75;4925608;28;97784;-72
2021/12/11 08:54:17;;;;;;;1999.90;999.90;;;;;;;-4.67;64.29;100813.44;4945310;28;97192;-75
2021/12/11 08:56:44;;;;;;;1999.90;999.90;;;;;;;-4.59;64.29;100825.34;4945316;28;100299;-74
2021/12/11 08:59:15;;;;;;;1999.90;999.90;;;;;;;-4.54;64.15;100842.22;4944682;28;99223;-75
2021/12/11 09:01:48;;;;;;;1999.90;999.90;;;;;;;-4.48;64.04;100847.88;4946337;28;96759;-75
2021/12/11 09:04:18;;;;;;;1999.90;999.90;;;;;;;-4.45;63.98;100858.53;4946224;28;96891;-75
2021/12/11 09:06:52;;;;;;;1999.90;999.90;;;;;;;-4.44;64.10;100844.75;4943953;28;99609;-73
2021/12/11 09:09:24;;;;;;;1999.90;999.90;;;;;;;-4.41;63.86;100876.19;4945649;28;98254;-73
2021/12/11 09:11:55;;;;;;;1999.90;999.90;;;;;;;-4.39;63.81;100872.00;4944260;28;96991;-75
2021/12/11 09:14:28;;;;;;;1999.90;999.90;;;;;;;-4.48;64.52;100884.22;4944465;28;97097;-75
2021/12/11 09:17:00;;;;;;;1999.90;999.90;;;;;;;-4.46;64.19;100877.47;4943223;28;97693;-74
2021/12/11 09:19:31;;;;;;;1999.90;999.90;;;;;;;-4.45;64.23;100889.69;4946050;28;99003;-74
2021/12/11 09:22:07;;;;;;;1999.90;999.90;;;;;;;-4.42;64.08;100887.34;4944837;28;96828;-74
2021/12/11 09:24:39;;;;;;;1999.90;999.90;;;;;;;-4.37;64.12;100890.31;4945783;28;97040;-76
2021/12/11 09:27:13;;;;;;;1999.90;999.90;;;;;;;-4.36;63.88;100885.25;4960426;28;98792;-74
2021/12/11 09:29:45;;;;;;;1999.90;999.90;;;;;;;-4.31;63.83;100886.53;4943562;28;97748;-76
2021/12/11 09:32:20;;;;;;;1999.90;999.90;;;;;;;-4.29;63.90;100897.03;4943127;28;96889;-73
2021/12/11 09:34:53;;;;;;;1999.90;999.90;;;;;;;-4.25;63.68;100889.63;4940979;28;97910;-73
2021/12/11 09:37:22;;;;;;;1999.90;999.90;;;;;;;-4.21;63.79;100901.16;4945558;28;97890;-73
2021/12/11 09:39:53;;;;;;;1999.90;999.90;;;;;;;-4.19;63.62;100899.63;4944024;28;97527;-76
2021/12/11 09:42:20;;;;;;;1999.90;999.90;;;;;;;-4.17;63.72;100911.91;4942114;28;98010;-73
2021/12/11 09:44:52;;;;;;;1999.90;999.90;;;;;;;-4.16;63.41;100900.75;4941994;28;96852;-73
2021/12/11 09:47:28;;;;;;;1999.90;999.90;;;;;;;-4.14;63.45;100913.88;4940058;28;99196;-74
2021/12/11 09:50:08;;;;;;;1999.90;999.90;;;;;;;-4.15;63.71;100917.28;4941549;28;97847;-69
2021/12/11 09:52:38;;;;;;;1999.90;999.90;;;;;;;-4.14;63.59;100912.19;4942667;28;97128;-74
2021/12/11 09:55:12;;;;;;;1999.90;999.90;;;;;;;-4.15;63.64;100918.16;4944042;28;96811;-74
2021/12/11 09:57:43;;;;;;;1999.90;999.90;;;;;;;-4.14;63.58;100930.38;4943085;28;98326;-74
2021/12/11 10:00:20;;;;;;;1999.90;999.90;;;;;;;-4.13;63.62;100932.19;4942246;28;97688;-73
2021/12/11 10:02:48;;;;;;;1999.90;999.90;;;;;;;-4.10;63.51;100923.75;4941712;28;98058;-74
2021/12/11 10:05:29;;;;;;;1999.90;999.90;;;;;;;-4.06;63.62;100931.00;4939145;28;97299;-74
2021/12/11 10:08:24;;;;;;;1999.90;999.90;;;;;;;-4.04;63.65;100932.91;4941402;28;98712;-74
2021/12/11 10:11:11;;;;;;;1999.90;999.90;;;;;;;-4.04;63.42;100938.13;4942352;28;97700;-74
2021/12/11 10:13:43;;;;;;;1999.90;999.90;;;;;;;-4.00;63.62;100942.78;4942498;28;97676;-73
2021/12/11 10:16:13;;;;;;;1999.90;999.90;;;;;;;-3.96;63.35;100951.75;4942138;28;97256;-74
2021/12/11 10:18:41;;;;;;;1999.90;999.90;;;;;;;-3.90;63.48;100955.75;4942020;28;97584;-73
2021/12/11 10:21:16;;;;;;;1999.90;999.90;;;;;;;-3.90;63.72;100960.03;4943795;28;99912;-73
2021/12/11 10:23:46;;;;;;;1999.90;999.90;;;;;;;-3.90;63.13;100953.16;4941415;28;96923;-74
2021/12/11 10:26:16;;;;;;;1999.90;999.90;;;;;;;-3.86;63.62;100963.00;4942909;28;98130;-73
2021/12/11 10:28:45;;;;;;;1999.90;999.90;;;;;;;-3.81;63.06;100972.88;4940157;28;97688;-73
2021/12/11 10:31:19;;;;;;;1999.90;999.90;;;;;;;-3.81;62.92;100971.19;4940011;28;99150;-73
2021/12/11 10:33:46;;;;;;;1999.90;999.90;;;;;;;-3.76;63.38;100969.84;4940532;28;97729;-73
2021/12/11 10:36:25;;;;;;;1999.90;999.90;;;;;;;-3.73;63.45;100971.81;4941889;28;97548;-73
2021/12/11 10:38:58;;;;;;;1999.90;999.90;;;;;;;-3.72;63.24;100969.31;4947419;28;97665;-72
2021/12/11 10:41:28;;;;;;;1999.90;999.90;;;;;;;-3.70;63.16;100964.22;4940504;28;97846;-72
2021/12/11 10:43:58;;;;;;;1999.90;999.90;;;;;;;-3.69;63.22;100964.34;4942998;28;97339;-73
2021/12/11 10:46:30;;;;;;;1999.90;999.90;;;;;;;-3.67;63.46;100972.28;4946116;28;96867;-71
2021/12/11 10:48:59;;;;;;;1999.90;999.90;;;;;;;-3.67;63.34;100972.28;4945771;28;97261;-74
2021/12/11 10:51:30;;;;;;;1999.90;999.90;;;;;;;-3.66;63.21;100980.22;4937231;28;98712;-73
2021/12/11 10:53:59;;;;;;;1999.90;999.90;;;;;;;-3.63;62.94;100974.34;4940885;28;97013;-74
2021/12/11 10:56:30;;;;;;;1999.90;999.90;;;;;;;-3.60;63.08;100969.41;4936425;28;98473;-71
2021/12/11 10:59:00;;;;;;;1999.90;999.90;;;;;;;-3.56;63.19;100967.16;4940921;28;97608;-73
2021/12/11 11:01:32;;;;;;;1999.90;999.90;;;;;;;-3.51;62.74;100967.53;4922604;28;99284;-72
2021/12/11 11:04:04;;;;;;;1999.90;999.90;;;;;;;-3.45;63.33;100973.19;4941216;28;97470;-73